Time;durP1;ratioP1;P1;durP2;ratioP2;P2;SDS_P1;SDS_P2;PMS_P1;PMS_P2;Temp;Humidity;BMP_temperature;BMP_pressure;BME280_temperature;BME280_humidity;BME280_pressure;Samples;Min_cycle;Max_cycle;Signal;HPM_P1;HPM_P2
2021/10/22 00:02:24;;;;;;;4.93;1.45;;;7.20;99.90;;;;;;5087334;28;20126;-42
2021/10/22 00:04:51;;;;;;;4.00;1.50;;;7.20;99.90;;;;;;5087965;28;20503;-42
2021/10/22 00:07:16;;;;;;;7.13;1.38;;;7.20;99.90;;;;;;5087688;28;20370;-43
2021/10/22 00:09:44;;;;;;;5.20;1.30;;;7.20;99.90;;;;;;5086697;28;20035;-43
2021/10/22 00:12:09;;;;;;;8.93;1.60;;;7.20;99.90;;;;;;5087620;28;20092;-43
2021/10/22 00:14:35;;;;;;;7.07;1.30;;;7.30;99.90;;;;;;5087075;28;20426;-42
2021/10/22 00:17:00;;;;;;;5.32;1.20;;;7.30;99.90;;;;;;5086269;28;20102;-42
2021/10/22 00:19:26;;;;;;;6.03;1.30;;;7.30;99.90;;;;;;5087068;28;20031;-42
2021/10/22 00:21:51;;;;;;;6.82;1.40;;;7.30;99.90;;;;;;5087496;28;20027;-43
2021/10/22 00:24:17;;;;;;;6.85;1.33;;;7.30;99.90;;;;;;5086929;28;20043;-43
2021/10/22 00:26:42;;;;;;;7.22;1.90;;;7.30;99.90;;;;;;5086889;28;20494;-43
2021/10/22 00:29:08;;;;;;;7.47;1.40;;;7.30;99.90;;;;;;5087309;28;20066;-43
2021/10/22 00:31:33;;;;;;;4.53;1.20;;;7.30;99.90;;;;;;5086583;28;20034;-42
2021/10/22 00:33:59;;;;;;;5.57;1.65;;;7.40;99.90;;;;;;5087387;28;20101;-43
2021/10/22 00:36:25;;;;;;;7.63;1.80;;;7.40;99.90;;;;;;5086834;28;20521;-43
2021/10/22 00:38:51;;;;;;;4.68;1.35;;;7.50;99.90;;;;;;5086544;28;20063;-43
2021/10/22 00:41:18;;;;;;;4.63;1.42;;;7.50;99.90;;;;;;5086759;28;20559;-43
2021/10/22 00:43:45;;;;;;;5.47;1.58;;;7.50;99.90;;;;;;5087092;28;20075;-44
2021/10/22 00:46:10;;;;;;;5.68;1.10;;;7.50;99.90;;;;;;5086315;28;20099;-43
2021/10/22 00:48:37;;;;;;;5.13;1.13;;;7.50;99.90;;;;;;5087185;28;20032;-43
2021/10/22 00:51:06;;;;;;;5.28;1.10;;;7.40;99.90;;;;;;5086448;28;20025;-43
2021/10/22 00:53:36;;;;;;;2.22;0.80;;;7.40;99.90;;;;;;5086663;28;20108;-42
2021/10/22 00:56:07;;;;;;;2.40;1.10;;;7.30;99.90;;;;;;5091099;28;20024;-42
2021/10/22 00:58:34;;;;;;;5.43;2.30;;;7.30;99.90;;;;;;5090677;28;20020;-42
2021/10/22 01:01:00;;;;;;;3.47;1.00;;;7.30;99.90;;;;;;5091120;28;20069;-42
2021/10/22 01:03:25;;;;;;;5.28;1.25;;;7.20;99.90;;;;;;5090688;28;20028;-43
2021/10/22 01:05:51;;;;;;;6.15;1.50;;;7.20;99.90;;;;;;5089976;28;20107;-43
2021/10/22 01:08:17;;;;;;;3.80;1.00;;;7.20;99.90;;;;;;5091216;28;20028;-42
2021/10/22 01:10:42;;;;;;;4.45;1.20;;;7.20;99.90;;;;;;5090835;28;20020;-42
2021/10/22 01:13:08;;;;;;;7.53;1.75;;;7.10;99.90;;;;;;5089732;28;20031;-42
2021/10/22 01:15:34;;;;;;;8.48;1.52;;;7.10;99.90;;;;;;5090903;28;20470;-42
2021/10/22 01:18:02;;;;;;;8.35;1.70;;;7.00;99.90;;;;;;5089925;28;20754;-44
2021/10/22 01:20:28;;;;;;;3.85;1.20;;;7.00;99.90;;;;;;5089940;28;20023;-43
2021/10/22 01:22:54;;;;;;;4.90;1.40;;;7.00;99.90;;;;;;5090567;28;20032;-42
2021/10/22 01:25:23;;;;;;;10.32;1.90;;;7.00;99.90;;;;;;5091061;28;20085;-42
2021/10/22 01:27:49;;;;;;;5.45;1.40;;;7.00;99.90;;;;;;5090260;28;20481;-42
2021/10/22 01:30:17;;;;;;;6.38;1.33;;;6.90;99.90;;;;;;5090287;28;20020;-42
2021/10/22 01:32:44;;;;;;;6.60;1.27;;;6.90;99.90;;;;;;5090551;28;20031;-42
2021/10/22 01:35:10;;;;;;;5.78;1.48;;;6.90;99.90;;;;;;5089928;28;20016;-43
2021/10/22 01:37:37;;;;;;;3.97;1.35;;;6.80;99.90;;;;;;5089860;28;20127;-42
2021/10/22 01:40:04;;;;;;;4.28;1.38;;;6.80;99.90;;;;;;5090376;28;20443;-42
2021/10/22 01:42:30;;;;;;;4.20;1.20;;;6.80;99.90;;;;;;5088964;28;20102;-42
2021/10/22 01:44:56;;;;;;;6.60;1.40;;;6.80;99.90;;;;;;5090317;28;20037;-42
2021/10/22 01:47:22;;;;;;;3.85;1.17;;;6.70;99.90;;;;;;5089970;28;20161;-43
2021/10/22 01:49:48;;;;;;;3.85;0.88;;;6.70;99.90;;;;;;5090338;28;20020;-43
2021/10/22 01:52:14;;;;;;;3.85;1.17;;;6.70;99.90;;;;;;5089962;28;20016;-42
2021/10/22 01:54:40;;;;;;;5.97;1.35;;;6.70;99.90;;;;;;5088926;28;20076;-42
2021/10/22 01:57:06;;;;;;;3.53;1.33;;;6.60;99.90;;;;;;5090100;28;20067;-42
2021/10/22 01:59:32;;;;;;;7.65;1.50;;;6.60;99.90;;;;;;5090211;28;20024;-42
2021/10/22 02:01:58;;;;;;;6.50;2.72;;;6.60;99.90;;;;;;5089299;28;20032;-43
2021/10/22 02:04:24;;;;;;;7.32;1.40;;;6.60;99.90;;;;;;5088707;28;20044;-44
2021/10/22 02:06:49;;;;;;;5.63;1.40;;;6.60;99.90;;;;;;5090121;28;20217;-42
2021/10/22 02:09:16;;;;;;;5.22;1.50;;;6.60;99.90;;;;;;5088838;28;20065;-41
2021/10/22 02:11:42;;;;;;;4.88;1.40;;;6.50;99.90;;;;;;5089561;28;20047;-43
2021/10/22 02:14:07;;;;;;;4.25;1.25;;;6.50;99.90;;;;;;5089617;28;20042;-43
2021/10/22 02:16:33;;;;;;;3.47;1.17;;;6.50;99.90;;;;;;5089241;28;20080;-43
2021/10/22 02:18:59;;;;;;;6.32;1.40;;;6.50;99.90;;;;;;5089451;28;20028;-43
2021/10/22 02:21:25;;;;;;;5.32;1.60;;;6.50;99.90;;;;;;5089620;28;20094;-43
2021/10/22 02:23:50;;;;;;;5.28;1.60;;;6.50;99.90;;;;;;5088958;28;20357;-42
2021/10/22 02:26:16;;;;;;;5.78;1.98;;;6.50;99.90;;;;;;5089713;28;20087;-43
2021/10/22 02:28:42;;;;;;;7.90;2.25;;;6.50;99.90;;;;;;5089406;28;20036;-43
2021/10/22 02:31:07;;;;;;;7.60;1.85;;;6.40;99.90;;;;;;5088577;28;20041;-43
2021/10/22 02:33:33;;;;;;;6.95;1.50;;;6.40;99.90;;;;;;5089830;28;20758;-43
2021/10/22 02:35:59;;;;;;;8.07;1.70;;;6.40;99.90;;;;;;5090209;28;20022;-43
2021/10/22 02:38:24;;;;;;;7.07;1.60;;;6.40;99.90;;;;;;5088883;28;20144;-43
2021/10/22 02:40:50;;;;;;;6.15;1.80;;;6.50;99.90;;;;;;5090029;28;20612;-42
2021/10/22 02:43:15;;;;;;;7.55;1.60;;;6.40;99.90;;;;;;5089864;28;20411;-43
2021/10/22 02:45:41;;;;;;;6.03;1.65;;;6.40;99.90;;;;;;5088341;28;20896;-42
2021/10/22 02:48:06;;;;;;;4.97;1.73;;;6.40;99.90;;;;;;5089693;28;20028;-42
2021/10/22 02:50:32;;;;;;;8.02;2.78;;;6.40;99.90;;;;;;5088147;28;20027;-42
2021/10/22 02:53:02;;;;;;;6.47;1.75;;;6.40;99.90;;;;;;5088507;28;20367;-42
2021/10/22 02:55:28;;;;;;;2.55;1.10;;;6.40;99.90;;;;;;5088589;28;20420;-42
2021/10/22 02:57:54;;;;;;;3.80;1.40;;;6.40;99.90;;;;;;5088249;28;20820;-42
2021/10/22 03:00:19;;;;;;;6.53;2.00;;;6.40;99.90;;;;;;5088734;28;20020;-42
2021/10/22 03:02:46;;;;;;;6.88;2.58;;;6.40;99.90;;;;;;5088475;28;20047;-43
2021/10/22 03:05:12;;;;;;;5.25;1.60;;;6.40;99.90;;;;;;5087979;28;20028;-43
2021/10/22 03:07:38;;;;;;;8.45;1.90;;;6.40;99.90;;;;;;5084578;28;20035;-42
2021/10/22 03:10:06;;;;;;;6.72;1.77;;;6.40;99.90;;;;;;5089318;28;20036;-42
2021/10/22 03:12:35;;;;;;;5.55;1.75;;;6.40;99.90;;;;;;5087225;28;20055;-43
2021/10/22 03:15:02;;;;;;;4.95;1.50;;;6.40;99.90;;;;;;5088604;28;20031;-44
2021/10/22 03:17:28;;;;;;;6.78;1.67;;;6.40;99.90;;;;;;5087016;28;20498;-43
2021/10/22 03:19:53;;;;;;;4.25;1.65;;;6.40;99.90;;;;;;5087733;28;20027;-43
2021/10/22 03:22:19;;;;;;;9.10;2.08;;;6.40;99.90;;;;;;5088276;28;20040;-43
2021/10/22 03:24:44;;;;;;;9.13;2.20;;;6.40;99.90;;;;;;5088282;28;20028;-43
2021/10/22 03:27:11;;;;;;;4.20;1.50;;;6.40;99.90;;;;;;5087862;28;20036;-43
2021/10/22 03:29:38;;;;;;;4.93;1.60;;;6.40;99.90;;;;;;5088118;28;20028;-43
2021/10/22 03:32:04;;;;;;;5.75;1.60;;;6.40;99.90;;;;;;5088388;28;20021;-43
2021/10/22 03:34:30;;;;;;;7.65;2.17;;;6.40;99.90;;;;;;5087127;28;20028;-43
2021/10/22 03:36:56;;;;;;;7.82;2.00;;;6.40;99.90;;;;;;5088247;28;20559;-43
2021/10/22 03:39:21;;;;;;;4.82;1.92;;;6.40;99.90;;;;;;5088426;28;20013;-43
2021/10/22 03:41:47;;;;;;;9.63;2.33;;;6.40;99.90;;;;;;5087116;28;20382;-43
2021/10/22 03:44:12;;;;;;;10.15;2.90;;;6.40;99.90;;;;;;5088055;28;20502;-43
2021/10/22 03:46:38;;;;;;;7.07;2.50;;;6.40;99.90;;;;;;5087497;28;20024;-43
2021/10/22 03:49:06;;;;;;;9.88;3.38;;;6.40;99.90;;;;;;5087717;28;20016;-42
2021/10/22 03:51:32;;;;;;;6.88;2.40;;;6.40;99.90;;;;;;5087567;28;20047;-42
2021/10/22 03:53:58;;;;;;;9.75;3.17;;;6.40;99.90;;;;;;5086108;28;20397;-43
2021/10/22 03:56:24;;;;;;;5.90;2.38;;;6.40;99.90;;;;;;5087485;28;20153;-42
2021/10/22 03:58:49;;;;;;;5.78;2.20;;;6.30;99.90;;;;;;5087737;28;20024;-42
2021/10/22 04:01:15;;;;;;;6.97;2.28;;;6.40;99.90;;;;;;5087234;28;20035;-42
2021/10/22 04:03:40;;;;;;;9.27;2.40;;;6.30;99.90;;;;;;5086892;28;20024;-43
2021/10/22 04:06:06;;;;;;;7.85;2.05;;;6.40;99.90;;;;;;5088340;28;20028;-42
2021/10/22 04:08:31;;;;;;;4.53;2.30;;;6.30;99.90;;;;;;5086137;28;20391;-43
2021/10/22 04:10:57;;;;;;;6.53;2.63;;;6.30;99.90;;;;;;5087793;28;20494;-42
2021/10/22 04:13:24;;;;;;;8.43;2.60;;;6.30;99.90;;;;;;5087014;28;20091;-42
2021/10/22 04:15:49;;;;;;;7.22;2.35;;;6.40;99.90;;;;;;5087013;28;20016;-42
2021/10/22 04:18:15;;;;;;;10.07;2.70;;;6.40;99.90;;;;;;5087233;28;20032;-43
2021/10/22 04:20:42;;;;;;;6.05;2.35;;;6.60;99.90;;;;;;5086875;28;20467;-43
2021/10/22 04:23:09;;;;;;;7.68;2.50;;;6.60;99.90;;;;;;5087336;28;20387;-42
2021/10/22 04:25:35;;;;;;;7.63;2.28;;;6.60;99.90;;;;;;5086824;28;20024;-43
2021/10/22 04:28:06;;;;;;;7.95;3.53;;;6.60;99.90;;;;;;5086783;28;20032;-43
2021/10/22 04:30:32;;;;;;;8.93;2.88;;;6.70;99.90;;;;;;5086497;28;20066;-43
2021/10/22 04:32:57;;;;;;;7.30;2.92;;;6.70;99.90;;;;;;5086790;28;20034;-43
2021/10/22 04:35:23;;;;;;;10.90;4.90;;;6.70;99.90;;;;;;5087199;28;20024;-43
2021/10/22 04:40:32;;;;;;;11.45;3.90;;;6.80;99.90;;;;;;5086769;28;20551;-45
2021/10/22 04:43:03;;;;;;;9.57;3.03;;;6.90;99.90;;;;;;5087233;28;20532;-43
2021/10/22 04:45:31;;;;;;;7.40;2.90;;;7.00;99.90;;;;;;5084515;28;20028;-43
2021/10/22 04:47:58;;;;;;;6.47;2.88;;;7.00;99.90;;;;;;5086882;28;20475;-45
2021/10/22 04:50:26;;;;;;;4.97;2.25;;;7.10;99.90;;;;;;5086198;28;20032;-43
2021/10/22 04:52:55;;;;;;;10.50;2.78;;;7.10;99.90;;;;;;5067077;28;20057;-42
2021/10/22 04:55:22;;;;;;;8.32;2.85;;;7.20;99.90;;;;;;5086579;28;20054;-42
2021/10/22 04:57:49;;;;;;;6.13;2.70;;;7.30;99.90;;;;;;5085815;28;20346;-43
2021/10/22 05:00:15;;;;;;;7.82;2.65;;;7.30;99.90;;;;;;5087529;28;20042;-44
2021/10/22 05:02:40;;;;;;;9.80;2.65;;;7.30;99.90;;;;;;5086417;28;20476;-43
2021/10/22 05:05:12;;;;;;;8.32;2.50;;;7.30;99.90;;;;;;5086417;28;20032;-43
2021/10/22 05:07:38;;;;;;;12.65;3.28;;;7.40;99.90;;;;;;5086629;28;20608;-43
2021/10/22 05:10:07;;;;;;;8.85;3.13;;;7.40;99.90;;;;;;5086616;28;20024;-43
2021/10/22 05:12:33;;;;;;;7.50;2.83;;;7.50;99.90;;;;;;5085867;28;20024;-43
2021/10/22 05:14:59;;;;;;;7.72;3.42;;;7.50;99.90;;;;;;5086864;28;20024;-42
2021/10/22 05:17:28;;;;;;;10.85;3.38;;;7.50;99.90;;;;;;5086521;28;20387;-43
2021/10/22 05:19:54;;;;;;;11.60;2.85;;;7.60;99.90;;;;;;5085632;28;20016;-43
2021/10/22 05:22:21;;;;;;;8.25;3.38;;;7.60;99.90;;;;;;5086788;28;20078;-44
2021/10/22 05:24:47;;;;;;;8.20;2.65;;;7.60;99.90;;;;;;5086414;28;20391;-43
2021/10/22 05:27:12;;;;;;;9.35;2.85;;;7.60;99.90;;;;;;5086117;28;20019;-43
2021/10/22 05:29:38;;;;;;;10.35;2.80;;;7.60;99.90;;;;;;5086469;28;20115;-43
2021/10/22 05:32:04;;;;;;;5.47;2.30;;;7.60;99.90;;;;;;5086509;28;20039;-42
2021/10/22 05:34:32;;;;;;;7.68;2.58;;;7.50;99.90;;;;;;5086080;28;20900;-42
2021/10/22 05:36:58;;;;;;;7.30;2.53;;;7.50;99.90;;;;;;5086143;28;20036;-44
2021/10/22 05:39:24;;;;;;;13.18;2.83;;;7.40;99.90;;;;;;5086146;28;20073;-43
2021/10/22 05:41:50;;;;;;;12.32;3.47;;;7.30;99.90;;;;;;5089818;28;20023;-42
2021/10/22 05:44:18;;;;;;;8.57;2.75;;;7.20;99.90;;;;;;5090607;28;20020;-42
2021/10/22 05:46:44;;;;;;;8.32;2.92;;;7.20;99.90;;;;;;5089435;28;20020;-43
2021/10/22 05:49:10;;;;;;;7.03;2.60;;;7.20;99.90;;;;;;5090691;28;20036;-43
2021/10/22 05:51:36;;;;;;;8.63;3.00;;;7.10;99.90;;;;;;5089322;28;20043;-44
2021/10/22 05:54:01;;;;;;;6.80;2.65;;;7.10;99.90;;;;;;5089462;28;20051;-44
2021/10/22 05:56:30;;;;;;;9.82;2.72;;;7.10;99.90;;;;;;5089196;28;20013;-43
2021/10/22 05:58:55;;;;;;;9.18;2.85;;;7.10;99.90;;;;;;5090037;28;20028;-43
2021/10/22 06:01:22;;;;;;;11.30;2.75;;;7.10;99.90;;;;;;5089784;28;20633;-42
2021/10/22 06:03:47;;;;;;;7.90;2.30;;;7.10;99.90;;;;;;5089601;28;20020;-43
2021/10/22 06:06:13;;;;;;;7.85;2.83;;;7.20;99.90;;;;;;5089962;28;20025;-43
2021/10/22 06:08:39;;;;;;;7.38;2.80;;;7.20;99.90;;;;;;5088652;28;20052;-43
2021/10/22 06:11:10;;;;;;;10.23;3.03;;;7.30;99.90;;;;;;5090187;28;20103;-43
2021/10/22 06:13:36;;;;;;;11.65;2.60;;;7.40;99.90;;;;;;5089621;28;20020;-44
2021/10/22 06:16:02;;;;;;;9.43;2.45;;;7.40;99.90;;;;;;5089166;28;20027;-43
2021/10/22 06:18:45;;;;;;;7.82;2.90;;;7.50;99.90;;;;;;5089346;28;20483;-43
2021/10/22 06:21:22;;;;;;;11.38;3.05;;;7.50;99.90;;;;;;5089725;28;20020;-43
2021/10/22 06:23:54;;;;;;;9.30;3.25;;;7.60;99.90;;;;;;5088735;28;20027;-42
2021/10/22 06:26:24;;;;;;;6.63;2.53;;;7.70;99.90;;;;;;5090109;28;20093;-42
2021/10/22 06:28:51;;;;;;;8.05;2.83;;;7.70;99.90;;;;;;5088527;28;20032;-43
2021/10/22 06:31:17;;;;;;;9.60;3.10;;;7.80;99.90;;;;;;5089713;28;20479;-43
2021/10/22 06:33:43;;;;;;;9.43;3.00;;;7.80;99.90;;;;;;5088246;28;20020;-43
2021/10/22 06:36:09;;;;;;;8.60;3.35;;;7.80;99.90;;;;;;5089135;28;20065;-43
2021/10/22 06:38:38;;;;;;;9.18;3.22;;;7.80;99.90;;;;;;5088887;28;20035;-43
2021/10/22 06:41:10;;;;;;;8.68;2.80;;;7.80;99.90;;;;;;5089349;28;20017;-43
2021/10/22 06:43:41;;;;;;;11.10;3.13;;;7.90;99.90;;;;;;5088827;28;20024;-44
2021/10/22 06:46:07;;;;;;;8.80;3.10;;;7.80;99.90;;;;;;5089205;28;20024;-42
2021/10/22 06:48:38;;;;;;;9.32;3.30;;;7.80;99.90;;;;;;5088427;28;20142;-42
2021/10/22 06:51:06;;;;;;;14.35;3.95;;;7.80;99.90;;;;;;5088718;28;20030;-43
2021/10/22 06:53:32;;;;;;;9.20;3.50;;;7.90;99.90;;;;;;5088351;28;20169;-42
2021/10/22 06:55:58;;;;;;;6.60;2.30;;;7.90;99.90;;;;;;5089106;28;20034;-43
2021/10/22 06:58:23;;;;;;;11.35;3.10;;;7.90;99.90;;;;;;5087615;28;20036;-44
2021/10/22 07:00:50;;;;;;;7.00;2.92;;;7.90;99.90;;;;;;5089059;28;20868;-43
2021/10/22 07:03:22;;;;;;;8.68;3.17;;;8.00;99.90;;;;;;5089536;28;20027;-43
2021/10/22 07:08:17;;;;;;;9.13;3.22;;;8.10;99.90;;;;;;5088947;28;20032;-43
2021/10/22 07:10:43;;;;;;;10.70;3.08;;;8.10;99.90;;;;;;5087540;28;20024;-44
2021/10/22 07:13:12;;;;;;;9.30;3.47;;;8.10;99.90;;;;;;5088497;28;20047;-42
2021/10/22 07:15:41;;;;;;;9.02;3.20;;;8.20;99.90;;;;;;5088053;28;20058;-43
2021/10/22 07:18:06;;;;;;;8.15;3.40;;;8.20;99.90;;;;;;5088052;28;20035;-43
2021/10/22 07:20:33;;;;;;;8.73;3.47;;;8.20;99.90;;;;;;5088056;28;20027;-43
2021/10/22 07:23:04;;;;;;;11.00;5.20;;;8.20;99.90;;;;;;5088220;28;20020;-43
2021/10/22 07:25:33;;;;;;;9.38;3.28;;;8.20;99.90;;;;;;5087334;28;20758;-43
2021/10/22 07:28:06;;;;;;;7.38;3.47;;;8.20;99.90;;;;;;5088238;28;20047;-43
2021/10/22 07:30:32;;;;;;;11.63;3.53;;;8.10;99.90;;;;;;5088329;28;20070;-43
2021/10/22 07:32:57;;;;;;;8.43;2.95;;;8.10;99.90;;;;;;5087185;28;20455;-42
2021/10/22 07:35:23;;;;;;;8.38;3.47;;;8.20;99.90;;;;;;5087785;28;20031;-43
2021/10/22 07:37:48;;;;;;;9.15;3.92;;;8.30;99.90;;;;;;5087717;28;20043;-42
2021/10/22 07:40:14;;;;;;;10.15;3.05;;;8.40;99.90;;;;;;5087496;28;20024;-42
2021/10/22 07:42:39;;;;;;;8.18;3.42;;;8.40;99.90;;;;;;5087738;28;20023;-42
2021/10/22 07:45:07;;;;;;;11.15;3.90;;;8.50;99.90;;;;;;5088232;28;20032;-42
2021/10/22 07:47:36;;;;;;;6.93;3.25;;;8.60;99.90;;;;;;5086929;28;20024;-42
2021/10/22 07:50:05;;;;;;;7.22;3.10;;;8.70;99.90;;;;;;5087550;28;21222;-43
2021/10/22 07:52:31;;;;;;;9.63;3.25;;;8.70;99.90;;;;;;5087575;28;20120;-42
2021/10/22 07:54:59;;;;;;;8.40;3.00;;;8.80;99.90;;;;;;5086638;28;20410;-43
2021/10/22 07:57:26;;;;;;;11.20;3.67;;;8.80;99.90;;;;;;5087160;28;20054;-43
2021/10/22 07:59:52;;;;;;;9.00;3.00;;;8.80;99.90;;;;;;5087439;28;20028;-43
2021/10/22 08:02:19;;;;;;;8.50;3.58;;;8.90;99.90;;;;;;5086654;28;20048;-43
2021/10/22 08:04:45;;;;;;;5.72;2.85;;;8.90;99.90;;;;;;5087662;28;20032;-43
2021/10/22 08:07:16;;;;;;;10.25;2.90;;;9.00;99.90;;;;;;5086802;28;20032;-43
2021/10/22 08:09:44;;;;;;;6.95;2.58;;;9.10;99.90;;;;;;5087402;28;20028;-43
2021/10/22 08:12:11;;;;;;;6.80;2.75;;;9.10;99.90;;;;;;5087380;28;20020;-43
2021/10/22 08:14:36;;;;;;;7.72;2.85;;;9.20;99.90;;;;;;5086935;28;20024;-43
2021/10/22 08:17:02;;;;;;;10.05;3.10;;;9.20;99.90;;;;;;5087008;28;20038;-43
2021/10/22 08:19:31;;;;;;;9.27;2.42;;;9.30;99.90;;;;;;5087416;28;20020;-43
2021/10/22 08:24:32;;;;;;;6.80;2.85;;;9.30;99.90;;;;;;5086983;28;20047;-43
2021/10/22 08:27:01;;;;;;;7.72;2.92;;;9.30;99.90;;;;;;5087410;28;20040;-43
2021/10/22 08:29:27;;;;;;;7.60;2.88;;;9.30;99.90;;;;;;5086480;28;20020;-43
2021/10/22 08:31:53;;;;;;;7.05;2.92;;;9.20;99.90;;;;;;5086904;28;20065;-44
2021/10/22 08:34:19;;;;;;;7.63;2.97;;;9.20;99.90;;;;;;5087583;28;20464;-44
2021/10/22 08:36:46;;;;;;;10.63;3.17;;;9.10;99.90;;;;;;5085479;28;20036;-43
2021/10/22 08:39:12;;;;;;;8.52;3.10;;;9.10;99.90;;;;;;5087842;28;20020;-43
2021/10/22 08:41:38;;;;;;;12.70;3.30;;;9.20;99.90;;;;;;5086823;28;20024;-42
2021/10/22 08:44:05;;;;;;;7.93;2.75;;;9.30;99.90;;;;;;5086704;28;20075;-43
2021/10/22 08:46:35;;;;;;;7.55;2.85;;;9.40;99.90;;;;;;5087038;28;20085;-43
2021/10/22 08:49:01;;;;;;;8.93;3.25;;;9.60;99.90;;;;;;5086660;28;20016;-43
2021/10/22 08:51:27;;;;;;;14.63;3.33;;;9.70;99.90;;;;;;5086685;28;20030;-43
2021/10/22 08:53:53;;;;;;;6.28;2.95;;;9.80;99.90;;;;;;5086280;28;20048;-43
2021/10/22 08:56:19;;;;;;;8.18;2.60;;;9.80;99.90;;;;;;5086883;28;20020;-42
2021/10/22 08:58:45;;;;;;;9.45;3.10;;;9.90;99.90;;;;;;5086163;28;20079;-44
2021/10/22 09:01:10;;;;;;;7.38;2.90;;;9.90;99.90;;;;;;5087263;28;20055;-44
2021/10/22 09:03:38;;;;;;;6.10;2.78;;;9.90;99.90;;;;;;5086026;28;20028;-44
2021/10/22 09:06:14;;;;;;;6.72;2.40;;;10.00;99.90;;;;;;5086672;28;20070;-43
2021/10/22 09:08:46;;;;;;;8.65;2.58;;;10.00;99.90;;;;;;5086636;28;20531;-43
2021/10/22 09:11:30;;;;;;;6.47;2.63;;;10.00;99.90;;;;;;5086761;28;20027;-43
2021/10/22 09:14:01;;;;;;;9.27;2.78;;;10.10;99.90;;;;;;5086144;28;20032;-43
2021/10/22 09:16:27;;;;;;;8.10;2.20;;;10.20;99.90;;;;;;5090314;28;20043;-44
2021/10/22 09:18:54;;;;;;;9.93;3.08;;;10.20;99.90;;;;;;5089806;28;20036;-43
2021/10/22 09:21:30;;;;;;;6.00;2.70;;;10.30;99.90;;;;;;5090969;28;20493;-43
2021/10/22 09:24:17;;;;;;;7.55;2.35;;;10.40;99.90;;;;;;5090269;28;20036;-43
2021/10/22 09:26:56;;;;;;;10.05;2.42;;;10.40;99.90;;;;;;5089423;28;20039;-43
2021/10/22 09:29:27;;;;;;;8.00;2.40;;;10.40;99.90;;;;;;5090572;28;20016;-43
2021/10/22 09:31:57;;;;;;;6.05;2.38;;;10.40;99.90;;;;;;5089712;28;20024;-43
2021/10/22 09:34:33;;;;;;;9.43;2.50;;;10.50;99.90;;;;;;5090675;28;20016;-43
2021/10/22 09:37:11;;;;;;;6.32;2.75;;;10.50;99.90;;;;;;5089937;28;20476;-42
2021/10/22 09:39:38;;;;;;;5.15;1.80;;;10.50;99.90;;;;;;5089936;28;20023;-42
2021/10/22 09:42:14;;;;;;;6.55;2.28;;;10.50;99.90;;;;;;5090642;28;20489;-43
2021/10/22 09:44:42;;;;;;;5.45;2.13;;;10.50;99.90;;;;;;5089726;28;20019;-43
2021/10/22 09:47:07;;;;;;;5.85;1.90;;;10.50;99.90;;;;;;5089669;28;20511;-43
2021/10/22 09:49:53;;;;;;;8.25;1.58;;;10.50;99.90;;;;;;5089665;28;20141;-43
2021/10/22 09:52:27;;;;;;;8.50;2.50;;;10.50;99.90;;;;;;5090489;28;20487;-44
2021/10/22 09:55:12;;;;;;;10.80;2.58;;;10.50;99.90;;;;;;5088756;28;20059;-43
2021/10/22 09:57:43;;;;;;;9.10;1.85;;;10.50;99.90;;;;;;5089789;28;20060;-43
2021/10/22 10:00:21;;;;;;;7.00;1.98;;;10.50;99.90;;;;;;5089445;28;20039;-43
2021/10/22 10:02:47;;;;;;;6.10;2.15;;;10.50;99.90;;;;;;5089932;28;20135;-43
2021/10/22 10:05:13;;;;;;;6.82;2.13;;;10.50;99.90;;;;;;5089795;28;20107;-42
2021/10/22 10:07:40;;;;;;;6.25;1.73;;;10.50;99.90;;;;;;5088808;28;20061;-42
2021/10/22 10:10:10;;;;;;;11.13;2.38;;;10.50;99.90;;;;;;5090028;28;20031;-42
2021/10/22 10:12:37;;;;;;;7.45;1.98;;;10.50;99.90;;;;;;5089221;28;20028;-42
2021/10/22 10:15:09;;;;;;;7.03;1.80;;;10.50;99.90;;;;;;5088447;28;20044;-42
2021/10/22 10:17:41;;;;;;;7.65;1.75;;;10.50;99.90;;;;;;5089531;28;20040;-42
2021/10/22 10:20:08;;;;;;;6.20;1.90;;;10.40;99.90;;;;;;5089645;28;20089;-43
2021/10/22 10:22:36;;;;;;;6.32;1.92;;;10.40;99.90;;;;;;5088679;28;20364;-42
2021/10/22 10:25:06;;;;;;;7.43;1.75;;;10.40;99.90;;;;;;5089203;28;20020;-42
2021/10/22 10:28:05;;;;;;;9.05;2.17;;;10.30;99.90;;;;;;5089012;28;20099;-43
2021/10/22 10:30:45;;;;;;;7.38;2.33;;;10.30;99.90;;;;;;5044767;28;20028;-44
2021/10/22 10:33:30;;;;;;;9.15;2.25;;;10.20;99.90;;;;;;5089516;28;20020;-42
2021/10/22 10:35:55;;;;;;;6.90;2.05;;;10.20;99.90;;;;;;5088922;28;20030;-42
2021/10/22 10:38:41;;;;;;;6.45;1.65;;;10.10;99.90;;;;;;5089423;28;20387;-43
2021/10/22 10:41:20;;;;;;;7.18;2.25;;;10.10;99.90;;;;;;5070980;28;20020;-42
2021/10/22 10:43:45;;;;;;;6.82;2.00;;;10.20;99.90;;;;;;5087830;28;20475;-43
2021/10/22 10:46:35;;;;;;;6.55;1.80;;;10.30;99.90;;;;;;5089425;28;20035;-43
2021/10/22 10:49:00;;;;;;;9.50;2.13;;;10.30;99.90;;;;;;5088436;28;20197;-44
2021/10/22 10:51:36;;;;;;;9.15;2.58;;;10.30;99.90;;;;;;5088520;28;20111;-43
2021/10/22 10:54:03;;;;;;;7.50;2.00;;;10.30;99.90;;;;;;5088863;28;20048;-43
2021/10/22 10:56:34;;;;;;;3.47;1.50;;;10.30;99.90;;;;;;5088021;28;20020;-44
2021/10/22 10:59:00;;;;;;;6.22;2.05;;;10.30;99.90;;;;;;5088534;28;20028;-44
2021/10/22 11:01:36;;;;;;;8.63;2.00;;;10.30;99.90;;;;;;5089012;28;20444;-42
2021/10/22 11:04:03;;;;;;;6.07;1.40;;;10.40;99.90;;;;;;5077383;28;20036;-44
2021/10/22 11:06:52;;;;;;;7.32;1.70;;;10.50;99.90;;;;;;5088467;28;20570;-44
2021/10/22 11:09:43;;;;;;;8.98;2.33;;;10.60;99.90;;;;;;5079492;28;20023;-43
2021/10/22 11:12:08;;;;;;;3.92;1.40;;;10.70;99.90;;;;;;5088133;28;20031;-43
2021/10/22 11:14:48;;;;;;;13.45;2.00;;;10.70;99.90;;;;;;5088200;28;20012;-43
2021/10/22 11:17:28;;;;;;;8.88;1.98;;;10.90;99.90;;;;;;5087839;28;20035;-43
2021/10/22 11:19:57;;;;;;;9.60;2.08;;;11.00;99.90;;;;;;5088671;28;20024;-41
2021/10/22 11:22:23;;;;;;;7.47;1.83;;;11.20;99.90;;;;;;5088198;28;20071;-43
2021/10/22 11:24:49;;;;;;;6.75;1.58;;;11.30;99.90;;;;;;5087547;28;20041;-43
2021/10/22 11:27:17;;;;;;;7.10;1.60;;;11.30;99.90;;;;;;5088128;28;20028;-44
2021/10/22 11:29:45;;;;;;;9.40;2.22;;;11.40;99.90;;;;;;5087561;28;20027;-43
2021/10/22 11:32:12;;;;;;;9.20;1.70;;;11.50;99.90;;;;;;5087610;28;20089;-42
2021/10/22 11:34:57;;;;;;;6.75;1.70;;;11.50;99.90;;;;;;5088680;28;20008;-43
2021/10/22 11:37:26;;;;;;;6.25;1.50;;;11.60;99.90;;;;;;5087097;28;20548;-43
2021/10/22 11:39:54;;;;;;;6.53;1.60;;;11.70;99.90;;;;;;5086840;28;20356;-43
2021/10/22 11:42:27;;;;;;;8.82;1.88;;;11.80;99.90;;;;;;5087995;28;20028;-43
2021/10/22 11:45:01;;;;;;;12.63;2.92;;;12.00;99.90;;;;;;5088096;28;20024;-42
2021/10/22 11:47:50;;;;;;;7.68;1.63;;;12.10;99.90;;;;;;5087451;28;20032;-43
2021/10/22 11:50:29;;;;;;;11.23;2.53;;;12.20;99.90;;;;;;5085926;28;20491;-42
2021/10/22 11:52:54;;;;;;;7.95;1.80;;;12.30;99.90;;;;;;5087083;28;20099;-43
2021/10/22 11:55:22;;;;;;;8.50;1.75;;;12.40;99.90;;;;;;5087785;28;20533;-43
2021/10/22 11:57:49;;;;;;;9.80;1.83;;;12.50;99.90;;;;;;5087346;28;20028;-43
2021/10/22 12:00:16;;;;;;;8.13;1.70;;;12.50;99.90;;;;;;5087285;28;20023;-43
2021/10/22 12:02:42;;;;;;;4.95;1.80;;;12.50;99.90;;;;;;5087343;28;20132;-44
2021/10/22 12:05:10;;;;;;;8.05;1.83;;;12.60;99.90;;;;;;5087458;28;20024;-43
2021/10/22 12:07:43;;;;;;;8.18;1.65;;;12.60;99.90;;;;;;5087192;28;20571;-43
2021/10/22 12:10:13;;;;;;;12.50;2.05;;;12.70;99.90;;;;;;5087770;28;20020;-43
2021/10/22 12:12:48;;;;;;;7.68;1.88;;;12.80;99.90;;;;;;5087454;28;20024;-43
2021/10/22 12:15:33;;;;;;;8.75;1.95;;;12.90;99.90;;;;;;5086975;28;20016;-42
2021/10/22 12:18:04;;;;;;;7.95;1.90;;;12.90;99.90;;;;;;5066989;28;20357;-43
2021/10/22 12:20:31;;;;;;;7.95;2.35;;;12.90;99.90;;;;;;5083578;28;20020;-43
2021/10/22 12:22:59;;;;;;;8.30;1.98;;;12.90;99.90;;;;;;5087127;28;20043;-43
2021/10/22 12:25:29;;;;;;;5.57;1.40;;;12.90;99.90;;;;;;5087077;28;20032;-43
2021/10/22 12:28:00;;;;;;;12.85;1.70;;;13.00;99.90;;;;;;5086125;28;20024;-43
2021/10/22 12:30:28;;;;;;;8.88;1.58;;;13.00;99.90;;;;;;5087122;28;20032;-44
2021/10/22 12:33:14;;;;;;;12.35;2.10;;;13.00;99.90;;;;;;5087153;28;20061;-43
2021/10/22 12:35:56;;;;;;;7.57;1.95;;;13.00;99.90;;;;;;5086516;28;20293;-44
2021/10/22 12:38:30;;;;;;;6.60;1.63;;;12.90;99.90;;;;;;5086979;28;20020;-44
2021/10/22 12:40:55;;;;;;;7.30;1.48;;;13.00;99.90;;;;;;5086719;28;20371;-44
2021/10/22 12:43:29;;;;;;;9.88;1.70;;;12.90;99.90;;;;;;5087064;28;20020;-42
2021/10/22 12:45:57;;;;;;;8.20;1.85;;;12.90;99.90;;;;;;5086922;28;20028;-43
2021/10/22 12:48:28;;;;;;;7.85;1.70;;;12.80;99.90;;;;;;5087039;28;20107;-42
2021/10/22 12:51:00;;;;;;;7.38;1.90;;;12.70;99.90;;;;;;5093658;28;20043;-42
2021/10/22 12:53:32;;;;;;;9.88;2.33;;;12.60;99.90;;;;;;5093386;28;20044;-43
2021/10/22 12:56:02;;;;;;;9.35;1.88;;;12.50;99.90;;;;;;5092648;28;20359;-43
2021/10/22 12:58:32;;;;;;;7.88;1.67;;;12.50;99.90;;;;;;5093677;28;20034;-43
2021/10/22 13:01:17;;;;;;;6.45;1.60;;;12.40;99.90;;;;;;5093376;28;20024;-43
2021/10/22 13:03:45;;;;;;;5.57;1.50;;;12.40;99.90;;;;;;5092622;28;20036;-44
2021/10/22 13:06:14;;;;;;;7.03;1.90;;;12.40;99.90;;;;;;5093895;28;20169;-42
2021/10/22 13:08:48;;;;;;;9.27;1.77;;;12.30;99.90;;;;;;5093548;28;20589;-43